Time;durP1;ratioP1;P1;durP2;ratioP2;P2;SDS_P1;SDS_P2;PMS_P1;PMS_P2;Temp;Humidity;BMP_temperature;BMP_pressure;BME280_temperature;BME280_humidity;BME280_pressure;Samples;Min_cycle;Max_cycle;Signal;HPM_P1;HPM_P2
2022/04/14 00:00:15;;;;;;;10.43;6.05;;;9.20;99.90;;;;;;5053155;28;20029;-59
2022/04/14 00:02:41;;;;;;;9.38;5.85;;;9.10;99.90;;;;;;5053240;28;20104;-59
2022/04/14 00:05:07;;;;;;;11.60;6.65;;;9.10;99.90;;;;;;5049452;28;20369;-59
2022/04/14 00:07:33;;;;;;;13.85;6.60;;;9.00;99.90;;;;;;5052718;28;20036;-59
2022/04/14 00:09:59;;;;;;;7.30;6.15;;;9.10;99.90;;;;;;5052973;28;20029;-59
2022/04/14 00:12:24;;;;;;;13.07;6.18;;;9.00;99.90;;;;;;5053136;28;20029;-59
2022/04/14 00:14:50;;;;;;;7.65;6.30;;;9.00;99.90;;;;;;5050313;28;20048;-60
2022/04/14 00:17:16;;;;;;;11.40;7.55;;;9.00;99.90;;;;;;5032932;28;20029;-59
2022/04/14 00:19:42;;;;;;;8.25;6.50;;;9.00;99.90;;;;;;5033106;28;20025;-60
2022/04/14 00:22:08;;;;;;;9.93;6.75;;;8.90;99.90;;;;;;5032681;28;20346;-60
2022/04/14 00:24:34;;;;;;;8.70;6.80;;;8.90;99.90;;;;;;5032935;28;20381;-59
2022/04/14 00:27:00;;;;;;;9.10;7.00;;;8.80;99.90;;;;;;5052518;28;20025;-60
2022/04/14 00:29:25;;;;;;;8.82;6.00;;;8.80;99.90;;;;;;5052685;28;20021;-60
2022/04/14 00:31:51;;;;;;;7.38;5.78;;;8.80;99.90;;;;;;5052775;28;20051;-59
2022/04/14 00:34:17;;;;;;;11.68;6.55;;;8.80;99.90;;;;;;5052575;28;20096;-59
2022/04/14 00:36:43;;;;;;;8.38;7.10;;;8.80;99.90;;;;;;5034978;28;20034;-59
2022/04/14 00:39:11;;;;;;;9.52;6.57;;;8.90;99.90;;;;;;5032556;28;20037;-60
2022/04/14 00:41:37;;;;;;;7.40;6.47;;;9.00;99.90;;;;;;5032610;28;20023;-60
2022/04/14 00:44:04;;;;;;;9.30;6.03;;;9.00;99.90;;;;;;5032483;28;20025;-59
2022/04/14 00:46:29;;;;;;;10.68;6.43;;;9.10;99.90;;;;;;5047337;28;20039;-60
2022/04/14 00:48:56;;;;;;;7.70;6.57;;;9.10;99.90;;;;;;5050744;28;20025;-60
2022/04/14 00:51:21;;;;;;;6.93;6.13;;;9.10;99.90;;;;;;5052123;28;20460;-59
2022/04/14 00:53:47;;;;;;;7.13;6.40;;;9.10;99.90;;;;;;5052317;28;20037;-59
2022/04/14 00:56:13;;;;;;;10.35;6.22;;;9.10;99.90;;;;;;5039067;28;20121;-60
2022/04/14 00:58:40;;;;;;;10.60;6.10;;;9.10;99.90;;;;;;5031042;28;20025;-59
2022/04/14 01:01:07;;;;;;;9.70;5.60;;;9.10;99.90;;;;;;5032207;28;20449;-60
2022/04/14 01:03:37;;;;;;;12.88;6.40;;;9.00;99.90;;;;;;5032071;28;20052;-59
2022/04/14 01:06:04;;;;;;;8.55;6.13;;;9.00;99.90;;;;;;5041341;28;20028;-60
2022/04/14 01:08:32;;;;;;;9.93;5.97;;;9.00;99.90;;;;;;5052054;28;20615;-60
2022/04/14 01:10:58;;;;;;;8.57;6.22;;;8.90;99.90;;;;;;5051943;28;20032;-59
2022/04/14 01:13:25;;;;;;;7.65;6.78;;;8.80;99.90;;;;;;5051879;28;20029;-59
2022/04/14 01:15:58;;;;;;;8.60;6.60;;;8.80;99.90;;;;;;5042652;28;20034;-60
2022/04/14 01:18:24;;;;;;;7.97;6.43;;;8.70;99.90;;;;;;5030736;28;20025;-60
2022/04/14 01:20:50;;;;;;;8.95;6.95;;;8.60;99.90;;;;;;5030606;28;20022;-59
2022/04/14 01:23:20;;;;;;;7.70;5.95;;;8.50;99.90;;;;;;5030526;28;20026;-59
2022/04/14 01:25:46;;;;;;;9.77;6.03;;;8.50;99.90;;;;;;5038720;28;20105;-59
2022/04/14 01:28:12;;;;;;;9.80;6.90;;;8.40;99.90;;;;;;5050751;28;20104;-60
2022/04/14 01:30:37;;;;;;;9.57;6.80;;;8.30;99.90;;;;;;5051645;28;20017;-59
2022/04/14 01:33:04;;;;;;;7.80;6.88;;;8.10;99.90;;;;;;5050857;28;20021;-59
2022/04/14 01:35:29;;;;;;;8.63;6.80;;;8.00;99.90;;;;;;5045138;28;20040;-59
2022/04/14 01:37:55;;;;;;;8.70;6.72;;;7.80;99.90;;;;;;5031176;28;20029;-60
2022/04/14 01:40:21;;;;;;;10.57;6.57;;;7.80;99.90;;;;;;5031159;28;20048;-59
2022/04/14 01:42:47;;;;;;;11.82;6.53;;;7.70;99.90;;;;;;5031575;28;20026;-59
2022/04/14 01:45:13;;;;;;;7.57;6.68;;;7.60;99.90;;;;;;5034643;28;20163;-59
2022/04/14 01:47:41;;;;;;;9.82;7.45;;;7.70;99.90;;;;;;5051392;28;20031;-59
2022/04/14 01:50:09;;;;;;;13.15;8.32;;;7.60;99.90;;;;;;5050086;28;20037;-59
2022/04/14 01:52:35;;;;;;;10.65;7.05;;;7.50;99.90;;;;;;5051524;28;20047;-59
2022/04/14 01:55:00;;;;;;;10.15;7.53;;;7.40;99.90;;;;;;5049535;28;20025;-59
2022/04/14 01:57:26;;;;;;;8.73;6.88;;;7.40;99.90;;;;;;5031463;28;20044;-59
2022/04/14 01:59:52;;;;;;;15.55;8.02;;;7.30;99.90;;;;;;5031369;28;20026;-59
2022/04/14 02:02:17;;;;;;;14.38;7.13;;;7.20;99.90;;;;;;5031243;28;20619;-59
2022/04/14 02:04:44;;;;;;;10.07;7.20;;;7.00;99.90;;;;;;5043913;28;20017;-59
2022/04/14 02:07:10;;;;;;;9.52;7.85;;;7.00;99.90;;;;;;5050906;28;20113;-59
2022/04/14 02:09:36;;;;;;;11.63;6.82;;;6.90;99.90;;;;;;5054684;28;20021;-60
2022/04/14 02:12:04;;;;;;;9.60;7.53;;;6.80;99.90;;;;;;5055170;28;20472;-60
2022/04/14 02:14:30;;;;;;;8.00;7.30;;;6.60;99.90;;;;;;5044171;28;20061;-59
2022/04/14 02:16:55;;;;;;;10.40;7.22;;;6.40;99.90;;;;;;5035486;28;20032;-59
2022/04/14 02:19:24;;;;;;;7.63;6.25;;;6.30;99.90;;;;;;5035221;28;20033;-59
2022/04/14 02:21:50;;;;;;;14.48;8.25;;;6.20;99.90;;;;;;5035316;28;20061;-59
2022/04/14 02:24:15;;;;;;;14.25;7.43;;;6.20;99.90;;;;;;5043312;28;20059;-59
2022/04/14 02:26:41;;;;;;;12.43;7.65;;;6.20;99.90;;;;;;5055118;28;20032;-59
2022/04/14 02:29:07;;;;;;;12.63;7.43;;;6.20;99.90;;;;;;5054851;28;20544;-59
2022/04/14 02:31:33;;;;;;;9.25;6.97;;;6.20;99.90;;;;;;5054915;28;20021;-59
2022/04/14 02:33:58;;;;;;;13.05;6.45;;;6.20;99.90;;;;;;5048876;28;20033;-59
2022/04/14 02:36:24;;;;;;;7.80;7.05;;;6.10;99.90;;;;;;5034978;28;20034;-59
2022/04/14 02:38:50;;;;;;;12.10;8.35;;;5.90;99.90;;;;;;5034834;28;20029;-59
2022/04/14 02:41:15;;;;;;;13.93;7.13;;;5.70;99.90;;;;;;5034747;28;20079;-59
2022/04/14 02:43:41;;;;;;;13.02;7.45;;;5.70;99.90;;;;;;5037814;28;20048;-59
2022/04/14 02:46:06;;;;;;;9.90;7.55;;;5.60;99.90;;;;;;5054594;28;20103;-59
2022/04/14 02:48:32;;;;;;;12.63;7.15;;;5.50;99.90;;;;;;5054730;28;20401;-59
2022/04/14 02:50:58;;;;;;;10.70;7.80;;;5.40;99.90;;;;;;5054675;28;20025;-59
2022/04/14 02:53:24;;;;;;;10.38;8.15;;;5.40;99.90;;;;;;5052839;28;20385;-59
2022/04/14 02:55:50;;;;;;;27.13;10.15;;;5.50;99.90;;;;;;5053332;28;20025;-59
2022/04/14 02:58:16;;;;;;;8.45;7.55;;;5.50;99.90;;;;;;5054208;28;20159;-59
2022/04/14 03:00:41;;;;;;;11.43;7.65;;;5.40;99.90;;;;;;5054370;28;20032;-59
2022/04/14 03:03:07;;;;;;;8.23;7.40;;;5.40;99.90;;;;;;5052566;28;20033;-59
2022/04/14 03:05:33;;;;;;;16.60;7.18;;;5.40;99.90;;;;;;5054418;28;20029;-60
2022/04/14 03:07:58;;;;;;;8.65;7.32;;;5.30;99.90;;;;;;5054354;28;20112;-59
2022/04/14 03:10:25;;;;;;;9.40;8.13;;;5.30;99.90;;;;;;5054247;28;20043;-59
2022/04/14 03:12:51;;;;;;;15.20;8.48;;;5.20;99.90;;;;;;5051900;28;20029;-59
2022/04/14 03:15:18;;;;;;;9.70;8.70;;;5.20;99.90;;;;;;5033965;28;20041;-59
2022/04/14 03:17:44;;;;;;;11.13;9.07;;;5.20;99.90;;;;;;5034333;28;20353;-59
2022/04/14 03:20:10;;;;;;;11.75;7.75;;;5.20;99.90;;;;;;5034154;28;20104;-59
2022/04/14 03:22:36;;;;;;;8.57;7.60;;;5.30;99.90;;;;;;5034109;28;20035;-59
2022/04/14 03:25:07;;;;;;;12.93;8.60;;;5.30;99.90;;;;;;5053595;28;20357;-59
2022/04/14 03:27:33;;;;;;;11.27;8.13;;;5.20;99.90;;;;;;5054003;28;20017;-59
2022/04/14 03:29:59;;;;;;;9.55;8.05;;;5.20;99.90;;;;;;5050615;28;20019;-59
2022/04/14 03:32:25;;;;;;;10.75;7.80;;;5.10;99.90;;;;;;5033916;28;20113;-59
2022/04/14 03:34:52;;;;;;;14.15;9.48;;;5.10;99.90;;;;;;5033898;28;20104;-59
2022/04/14 03:37:18;;;;;;;10.60;8.13;;;5.00;99.90;;;;;;5033754;28;20025;-59
2022/04/14 03:39:43;;;;;;;13.77;8.20;;;5.10;99.90;;;;;;5033814;28;20022;-59
2022/04/14 03:42:09;;;;;;;8.15;7.32;;;5.00;99.90;;;;;;5053425;28;20074;-59
2022/04/14 03:44:34;;;;;;;13.73;9.27;;;5.00;99.90;;;;;;5053647;28;20472;-59
2022/04/14 03:47:00;;;;;;;11.57;7.72;;;5.00;99.90;;;;;;5052409;28;20029;-59
2022/04/14 03:49:26;;;;;;;23.95;7.63;;;5.00;99.90;;;;;;5053452;28;20087;-59
2022/04/14 03:51:54;;;;;;;13.32;8.45;;;5.00;99.90;;;;;;5035804;28;20033;-60
2022/04/14 03:54:20;;;;;;;8.73;7.30;;;4.90;99.90;;;;;;5033458;28;20036;-59
2022/04/14 03:56:47;;;;;;;12.18;7.60;;;4.80;99.90;;;;;;5033505;28;20060;-59
2022/04/14 03:59:13;;;;;;;8.30;7.45;;;4.80;99.90;;;;;;5042019;28;20427;-59
2022/04/14 04:01:39;;;;;;;13.85;8.10;;;4.80;99.90;;;;;;5053431;28;20044;-59
2022/04/14 04:04:05;;;;;;;14.05;7.85;;;4.70;99.90;;;;;;5052780;28;20444;-59
2022/04/14 04:06:30;;;;;;;11.60;8.38;;;4.70;99.90;;;;;;5053072;28;20108;-59
2022/04/14 04:08:56;;;;;;;11.20;8.43;;;4.70;99.90;;;;;;5046563;28;20025;-59
2022/04/14 04:11:22;;;;;;;10.10;8.02;;;4.70;99.90;;;;;;5032998;28;20458;-59
2022/04/14 04:13:47;;;;;;;10.13;7.65;;;4.60;99.90;;;;;;5032960;28;20061;-60
2022/04/14 04:16:13;;;;;;;12.27;8.90;;;4.60;99.90;;;;;;5032943;28;20082;-59
2022/04/14 04:18:39;;;;;;;9.82;7.93;;;4.50;99.90;;;;;;5036576;28;20102;-59
2022/04/14 04:21:04;;;;;;;8.57;7.78;;;4.50;99.90;;;;;;5052451;28;20147;-59
2022/04/14 04:23:30;;;;;;;31.95;9.70;;;4.60;99.90;;;;;;5052552;28;20040;-59
2022/04/14 04:25:56;;;;;;;11.15;8.95;;;4.70;99.90;;;;;;5052379;28;20029;-59
2022/04/14 04:28:22;;;;;;;9.27;7.85;;;4.70;99.90;;;;;;5050833;28;20013;-59
2022/04/14 04:30:48;;;;;;;12.98;9.18;;;4.70;99.90;;;;;;5032118;28;20030;-59
2022/04/14 04:33:14;;;;;;;14.55;8.98;;;4.60;99.90;;;;;;5032622;28;20033;-59
2022/04/14 04:35:39;;;;;;;12.93;9.30;;;4.60;99.90;;;;;;5032486;28;20029;-60
2022/04/14 04:38:05;;;;;;;12.35;9.02;;;4.60;99.90;;;;;;5032097;28;20039;-59
2022/04/14 04:40:31;;;;;;;8.73;7.90;;;4.70;99.90;;;;;;5031066;28;20029;-59
2022/04/14 04:42:56;;;;;;;11.48;8.45;;;4.80;99.90;;;;;;5031768;28;20056;-59
2022/04/14 04:45:22;;;;;;;11.43;7.95;;;4.90;99.90;;;;;;5032162;28;20013;-59
2022/04/14 04:47:48;;;;;;;19.88;8.90;;;5.00;99.90;;;;;;5034570;28;20029;-59
2022/04/14 04:50:14;;;;;;;19.48;8.77;;;5.00;99.90;;;;;;5032163;28;20032;-59
2022/04/14 04:52:39;;;;;;;13.30;8.55;;;5.00;99.90;;;;;;5032270;28;20041;-59
2022/04/14 04:55:06;;;;;;;11.43;7.93;;;5.10;99.90;;;;;;5032047;28;20022;-59
2022/04/14 04:57:31;;;;;;;14.32;9.48;;;5.10;99.90;;;;;;5040646;28;20048;-59
2022/04/14 04:59:57;;;;;;;11.50;8.80;;;5.20;99.90;;;;;;5050939;28;20037;-59
2022/04/14 05:02:22;;;;;;;12.35;7.45;;;5.20;99.90;;;;;;5050406;28;20036;-59
2022/04/14 05:04:48;;;;;;;8.95;8.05;;;5.20;99.90;;;;;;5051752;28;20029;-59
2022/04/14 05:07:14;;;;;;;13.75;8.18;;;5.30;99.90;;;;;;5045539;28;20384;-59
2022/04/14 05:09:39;;;;;;;11.13;8.45;;;5.30;99.90;;;;;;5031945;28;20417;-59
2022/04/14 05:12:05;;;;;;;13.98;8.23;;;5.40;99.90;;;;;;5031020;28;20032;-59
2022/04/14 05:14:31;;;;;;;18.85;8.75;;;5.60;99.90;;;;;;5031295;28;20104;-59
2022/04/14 05:16:57;;;;;;;11.85;8.65;;;5.70;99.90;;;;;;5034663;28;20044;-59
2022/04/14 05:19:22;;;;;;;12.52;8.35;;;5.80;99.90;;;;;;5051162;28;20052;-59
2022/04/14 05:21:48;;;;;;;14.65;9.02;;;5.90;99.90;;;;;;5050634;28;20443;-59
2022/04/14 05:24:14;;;;;;;9.15;7.90;;;6.00;99.90;;;;;;5050257;28;20422;-59
2022/04/14 05:26:40;;;;;;;10.80;8.70;;;6.10;99.90;;;;;;5035734;28;20376;-59
2022/04/14 05:29:09;;;;;;;21.20;11.30;;;6.20;99.90;;;;;;5035183;28;20024;-59
2022/04/14 05:31:35;;;;;;;15.60;9.23;;;6.30;99.90;;;;;;5050768;28;20237;-59
2022/04/14 05:34:00;;;;;;;16.05;8.90;;;6.40;99.90;;;;;;5050216;28;20170;-60
2022/04/14 05:36:26;;;;;;;11.02;8.10;;;6.60;99.90;;;;;;5050535;28;20040;-59
2022/04/14 05:38:51;;;;;;;15.93;8.95;;;6.70;99.90;;;;;;5049841;28;20062;-59
2022/04/14 05:41:17;;;;;;;13.02;8.30;;;6.80;99.90;;;;;;5031466;28;20025;-59
2022/04/14 05:43:43;;;;;;;12.13;8.38;;;7.00;99.90;;;;;;5030686;28;20029;-59
2022/04/14 05:46:09;;;;;;;15.75;9.45;;;7.10;99.90;;;;;;5031407;28;20025;-59
2022/04/14 05:48:34;;;;;;;22.00;8.90;;;7.20;99.90;;;;;;5031636;28;20036;-59
2022/04/14 05:51:00;;;;;;;13.20;8.57;;;7.40;99.90;;;;;;5050017;28;20036;-59
2022/04/14 05:53:26;;;;;;;16.75;9.43;;;7.50;99.90;;;;;;5051368;28;20508;-59
2022/04/14 05:55:52;;;;;;;12.35;8.27;;;7.60;99.90;;;;;;5051376;28;20052;-59
2022/04/14 05:58:18;;;;;;;11.38;8.32;;;7.70;99.90;;;;;;5051335;28;20433;-58
2022/04/14 06:00:44;;;;;;;12.02;7.78;;;7.80;99.90;;;;;;5051040;28;20071;-59
2022/04/14 06:03:11;;;;;;;15.57;7.78;;;8.00;99.90;;;;;;5031260;28;20116;-59
2022/04/14 06:05:36;;;;;;;22.42;8.70;;;8.30;99.90;;;;;;5031455;28;20607;-59
2022/04/14 06:08:02;;;;;;;14.10;9.52;;;8.40;99.90;;;;;;5031203;28;20021;-58
2022/04/14 06:10:29;;;;;;;17.27;7.80;;;8.50;99.90;;;;;;5031260;28;20033;-59
2022/04/14 06:12:55;;;;;;;12.02;8.57;;;8.60;99.90;;;;;;5031189;28;20038;-59
2022/04/14 06:15:21;;;;;;;14.00;8.75;;;8.60;99.90;;;;;;5031538;28;20056;-60
2022/04/14 06:17:47;;;;;;;14.40;7.95;;;8.70;99.90;;;;;;5031261;28;20061;-59
2022/04/14 06:20:13;;;;;;;11.52;8.32;;;8.90;99.90;;;;;;5031011;28;20126;-59
2022/04/14 06:22:43;;;;;;;13.65;7.90;;;9.00;99.90;;;;;;5031237;28;20542;-59
2022/04/14 06:25:13;;;;;;;10.13;7.85;;;9.20;99.90;;;;;;5031013;28;20064;-59
2022/04/14 06:27:43;;;;;;;16.70;9.73;;;9.40;99.90;;;;;;5031144;28;20022;-59
2022/04/14 06:30:10;;;;;;;13.57;7.75;;;9.60;99.90;;;;;;5032074;28;20457;-59
2022/04/14 06:32:37;;;;;;;16.98;8.23;;;9.70;99.90;;;;;;5031057;28;20036;-59
2022/04/14 06:35:07;;;;;;;11.50;7.60;;;10.00;99.90;;;;;;5030897;28;20030;-58
2022/04/14 06:37:34;;;;;;;14.00;8.32;;;10.20;99.90;;;;;;5030830;28;20029;-57
2022/04/14 06:40:00;;;;;;;9.38;7.63;;;10.40;99.90;;;;;;5030701;28;20076;-59
2022/04/14 06:42:26;;;;;;;10.52;8.57;;;10.70;99.90;;;;;;5030892;28;20037;-59
2022/04/14 06:44:53;;;;;;;17.65;8.05;;;10.90;99.90;;;;;;5040182;28;20065;-58
2022/04/14 06:47:21;;;;;;;8.25;7.10;;;11.20;99.90;;;;;;5050555;28;20091;-59
2022/04/14 06:49:46;;;;;;;10.15;8.40;;;11.40;99.90;;;;;;5050934;28;20025;-59
2022/04/14 06:52:12;;;;;;;10.80;7.28;;;11.50;99.90;;;;;;5050530;28;20025;-58
2022/04/14 06:54:38;;;;;;;15.45;8.23;;;11.70;99.90;;;;;;5049261;28;20075;-59
2022/04/14 06:57:04;;;;;;;14.82;6.93;;;11.80;99.90;;;;;;5054404;28;20060;-59
2022/04/14 06:59:30;;;;;;;11.50;7.43;;;12.00;99.90;;;;;;5054560;28;20033;-59
2022/04/14 07:01:55;;;;;;;13.05;7.88;;;12.10;99.90;;;;;;5043690;28;20029;-59
2022/04/14 07:04:21;;;;;;;14.02;7.90;;;12.20;99.90;;;;;;5054202;28;20103;-59
2022/04/14 07:06:47;;;;;;;12.02;8.23;;;12.30;99.90;;;;;;5054484;28;20025;-59
2022/04/14 07:09:13;;;;;;;15.75;6.93;;;12.50;99.90;;;;;;5054089;28;20016;-59
2022/04/14 07:11:39;;;;;;;16.50;7.80;;;12.70;99.90;;;;;;5054134;28;20021;-59
2022/04/14 07:14:04;;;;;;;13.18;7.10;;;12.80;99.90;;;;;;5053740;28;20039;-59
2022/04/14 07:16:30;;;;;;;9.07;7.05;;;12.90;99.90;;;;;;5044677;28;20125;-59
2022/04/14 07:18:56;;;;;;;7.97;6.53;;;13.10;99.90;;;;;;5034181;28;20534;-60
2022/04/14 07:21:21;;;;;;;12.82;6.72;;;13.20;99.90;;;;;;5033919;28;20556;-59
2022/04/14 07:23:47;;;;;;;16.50;6.22;;;13.30;99.90;;;;;;5034002;28;20128;-59
2022/04/14 07:26:13;;;;;;;7.32;6.22;;;13.30;99.90;;;;;;5033914;28;20108;-59
2022/04/14 07:28:39;;;;;;;9.23;6.47;;;13.50;99.90;;;;;;5034023;28;20682;-59
2022/04/14 07:31:05;;;;;;;9.25;6.53;;;13.70;99.90;;;;;;5041307;28;20029;-60
2022/04/14 07:33:31;;;;;;;11.98;5.60;;;13.80;99.90;;;;;;5053833;28;20029;-59
2022/04/14 07:35:57;;;;;;;11.95;5.07;;;14.00;99.90;;;;;;5052359;28;20431;-59
2022/04/14 07:38:22;;;;;;;6.38;5.22;;;14.20;99.90;;;;;;5048729;28;20419;-59
2022/04/14 07:40:49;;;;;;;15.27;5.65;;;14.30;99.90;;;;;;5033368;28;20052;-59
2022/04/14 07:43:15;;;;;;;10.73;4.72;;;14.50;99.90;;;;;;5042997;28;20029;-59
2022/04/14 07:45:42;;;;;;;8.95;5.72;;;14.70;99.90;;;;;;5052682;28;20376;-59
2022/04/14 07:48:09;;;;;;;7.88;4.82;;;14.90;99.90;;;;;;5052824;28;20491;-60
2022/04/14 07:50:34;;;;;;;8.80;4.75;;;15.10;99.90;;;;;;5053524;28;20040;-59
2022/04/14 07:53:00;;;;;;;7.25;3.67;;;15.30;99.90;;;;;;5053421;28;20021;-59
2022/04/14 07:55:28;;;;;;;9.30;4.63;;;15.50;99.90;;;;;;5053394;28;20025;-60
2022/04/14 07:57:56;;;;;;;11.65;4.72;;;15.70;99.90;;;;;;5036449;28;20055;-59
2022/04/14 08:00:23;;;;;;;14.20;4.72;;;15.80;99.90;;;;;;5032967;28;20036;-59
2022/04/14 08:03:00;;;;;;;10.70;4.88;;;15.90;99.90;;;;;;5033279;28;20510;-60
2022/04/14 08:05:33;;;;;;;6.40;4.93;;;16.10;99.90;;;;;;5032494;28;20028;-59
2022/04/14 08:08:10;;;;;;;8.65;4.43;;;16.40;99.90;;;;;;5033047;28;20393;-60
2022/04/14 08:10:37;;;;;;;3.85;3.45;;;16.50;99.10;;;;;;5033320;28;20037;-61
2022/04/14 08:13:03;;;;;;;6.72;4.00;;;16.70;99.90;;;;;;5044098;28;20111;-61
2022/04/14 08:15:30;;;;;;;13.50;4.07;;;16.70;97.70;;;;;;5051143;28;20051;-61
2022/04/14 08:17:57;;;;;;;5.90;3.95;;;16.90;97.20;;;;;;5052999;28;20476;-61
2022/04/14 08:20:23;;;;;;;9.95;5.28;;;17.00;96.90;;;;;;5052792;28;20044;-61
2022/04/14 08:22:53;;;;;;;7.60;4.10;;;17.20;96.60;;;;;;5052795;28;20021;-60
2022/04/14 08:25:20;;;;;;;9.15;3.80;;;17.30;97.50;;;;;;5052672;28;20392;-60
2022/04/14 08:27:47;;;;;;;12.85;5.13;;;17.40;97.10;;;;;;5052778;28;20017;-61
2022/04/14 08:30:14;;;;;;;9.27;4.35;;;17.60;95.30;;;;;;5044008;28;20084;-61
2022/04/14 08:32:40;;;;;;;7.95;4.18;;;17.50;95.30;;;;;;5032403;28;20053;-60
2022/04/14 08:35:07;;;;;;;9.13;4.70;;;17.60;96.70;;;;;;5032303;28;20053;-61
2022/04/14 08:37:33;;;;;;;10.35;5.35;;;17.80;95.40;;;;;;5032761;28;20123;-61
2022/04/14 08:39:59;;;;;;;11.85;4.93;;;17.90;95.90;;;;;;5032604;28;20030;-61
2022/04/14 08:42:43;;;;;;;7.45;5.00;;;18.10;97.50;;;;;;5032610;28;20396;-61
2022/04/14 08:45:13;;;;;;;7.63;5.35;;;18.20;95.50;;;;;;5041871;28;20021;-61
2022/04/14 08:47:39;;;;;;;9.80;4.43;;;18.40;94.50;;;;;;5052477;28;20022;-61
2022/04/14 08:50:07;;;;;;;8.00;4.57;;;18.40;94.90;;;;;;5052058;28;20052;-61
2022/04/14 08:52:37;;;;;;;6.45;4.43;;;18.60;93.40;;;;;;5052200;28;20029;-61
2022/04/14 08:55:05;;;;;;;11.57;5.13;;;18.60;92.20;;;;;;5052119;28;20033;-61
2022/04/14 08:57:32;;;;;;;6.65;4.50;;;18.60;92.20;;;;;;5052194;28;20028;-61
2022/04/14 09:00:00;;;;;;;10.95;4.00;;;18.80;94.10;;;;;;5050796;28;20408;-61
2022/04/14 09:02:27;;;;;;;5.78;3.47;;;19.00;92.40;;;;;;5052065;28;20423;-60
2022/04/14 09:04:53;;;;;;;10.23;4.35;;;19.20;91.10;;;;;;5052111;28;20104;-61
2022/04/14 09:07:19;;;;;;;6.72;3.42;;;19.10;90.80;;;;;;5051993;28;20029;-61
2022/04/14 09:09:45;;;;;;;10.13;3.97;;;19.40;91.30;;;;;;5051931;28;20079;-60
2022/04/14 09:12:12;;;;;;;9.77;3.65;;;19.50;90.40;;;;;;5051744;28;20029;-61
2022/04/14 09:14:38;;;;;;;8.88;5.03;;;19.60;90.60;;;;;;5041707;28;20052;-61
2022/04/14 09:17:09;;;;;;;6.80;3.45;;;19.70;88.30;;;;;;5031641;28;20076;-61
2022/04/14 09:19:36;;;;;;;11.88;3.50;;;19.60;90.20;;;;;;5031854;28;20022;-61
2022/04/14 09:22:03;;;;;;;14.98;3.88;;;19.80;85.50;;;;;;5031710;28;20038;-61
2022/04/14 09:24:49;;;;;;;8.65;4.00;;;20.00;85.70;;;;;;5031859;28;20025;-61
2022/04/14 09:27:39;;;;;;;9.02;4.30;;;19.90;83.60;;;;;;5031772;28;20030;-61
2022/04/14 09:30:06;;;;;;;11.55;4.03;;;20.20;85.50;;;;;;5047177;28;20017;-60
2022/04/14 09:32:42;;;;;;;10.50;4.55;;;20.40;83.30;;;;;;5051644;28;20535;-61
2022/04/14 09:35:18;;;;;;;10.57;4.57;;;20.30;83.00;;;;;;5051776;28;20033;-61
2022/04/14 09:37:45;;;;;;;12.45;5.72;;;20.20;85.00;;;;;;5051580;28;20021;-61
2022/04/14 09:40:12;;;;;;;7.25;4.72;;;20.40;81.20;;;;;;5049445;28;20391;-60
2022/04/14 09:42:42;;;;;;;11.75;4.60;;;20.20;82.80;;;;;;5051375;28;20373;-60
2022/04/14 09:45:26;;;;;;;6.28;4.43;;;20.50;83.70;;;;;;5049556;28;20025;-60
2022/04/14 09:47:53;;;;;;;10.98;5.75;;;20.10;81.90;;;;;;5031581;28;20357;-61
2022/04/14 09:50:39;;;;;;;10.75;4.90;;;20.50;81.30;;;;;;5037732;28;20052;-61
2022/04/14 09:53:08;;;;;;;8.02;5.35;;;20.40;81.30;;;;;;5051411;28;20163;-61
2022/04/14 09:55:41;;;;;;;11.57;5.72;;;20.60;80.90;;;;;;5051337;28;20075;-61
2022/04/14 09:58:17;;;;;;;16.88;5.55;;;20.50;80.30;;;;;;5049566;28;20029;-61
2022/04/14 10:00:59;;;;;;;8.07;6.15;;;20.90;82.60;;;;;;5050076;28;20040;-60
2022/04/14 10:03:27;;;;;;;10.27;6.45;;;21.50;80.70;;;;;;5048888;28;20099;-61
2022/04/14 10:05:55;;;;;;;12.57;6.72;;;21.30;78.40;;;;;;5049840;28;20021;-61
2022/04/14 10:08:24;;;;;;;10.48;7.10;;;21.30;79.70;;;;;;5050271;28;20435;-61
2022/04/14 10:11:07;;;;;;;24.00;7.80;;;21.50;78.70;;;;;;5051034;28;20021;-61
2022/04/14 10:13:39;;;;;;;12.25;8.63;;;21.40;82.30;;;;;;5050604;28;20041;-61
2022/04/14 10:16:07;;;;;;;23.65;8.50;;;21.80;81.00;;;;;;5050447;28;20125;-61
2022/04/14 10:18:33;;;;;;;18.15;8.35;;;21.90;81.60;;;;;;5050639;28;20045;-60
2022/04/14 10:20:59;;;;;;;14.88;8.73;;;22.10;78.50;;;;;;5051058;28;20021;-61
2022/04/14 10:23:27;;;;;;;16.25;8.63;;;21.50;76.50;;;;;;5050737;28;20040;-61
2022/04/14 10:25:53;;;;;;;14.40;8.85;;;21.90;78.30;;;;;;5051152;28;20032;-61
2022/04/14 10:28:20;;;;;;;14.10;8.77;;;22.00;74.50;;;;;;5050983;28;20506;-61
2022/04/14 10:30:58;;;;;;;15.15;9.00;;;22.30;73.00;;;;;;5054631;28;20055;-61
2022/04/14 10:33:24;;;;;;;21.92;9.45;;;22.30;71.90;;;;;;5055039;28;20025;-61
2022/04/14 10:35:51;;;;;;;17.38;8.18;;;22.10;72.50;;;;;;5054906;28;20112;-61
2022/04/14 10:38:28;;;;;;;15.75;7.82;;;22.40;73.30;;;;;;5054816;28;20032;-61
2022/04/14 10:41:00;;;;;;;16.90;8.60;;;22.80;74.40;;;;;;5054739;28;20079;-61
2022/04/14 10:43:26;;;;;;;15.70;8.50;;;22.60;73.10;;;;;;5054690;28;20059;-60
2022/04/14 10:46:00;;;;;;;14.90;8.10;;;22.30;76.40;;;;;;5054690;28;20025;-60
2022/04/14 10:48:40;;;;;;;;;;;22.20;74.40;;;;;;5055180;28;20037;-61
2022/04/14 10:51:27;;;;;;;13.55;6.30;;;22.00;75.50;;;;;;5054500;28;19904;-61
2022/04/14 10:54:05;;;;;;;18.25;7.50;;;21.80;75.60;;;;;;5054674;28;20029;-61
2022/04/14 10:56:33;;;;;;;14.52;7.93;;;21.70;72.30;;;;;;5054627;28;20056;-61
2022/04/14 10:59:00;;;;;;;12.60;7.22;;;21.90;72.60;;;;;;5054542;28;20142;-61
2022/04/14 11:04:36;;;;;;;13.88;6.68;;;22.70;72.20;;;;;;5054488;28;20037;-61
2022/04/14 11:07:08;;;;;;;17.70;6.75;;;22.60;70.40;;;;;;5054164;28;20049;-61
2022/04/14 11:09:43;;;;;;;14.87;6.97;;;23.00;72.30;;;;;;5054455;28;20021;-61
2022/04/14 11:12:14;;;;;;;11.32;7.45;;;23.10;70.40;;;;;;5054009;28;20025;-61
2022/04/14 11:15:03;;;;;;;13.95;6.57;;;23.30;68.90;;;;;;5053880;28;20045;-61
2022/04/14 11:17:37;;;;;;;8.77;6.35;;;23.40;73.50;;;;;;5054172;28;20023;-61
2022/04/14 11:20:15;;;;;;;13.25;6.13;;;23.30;70.90;;;;;;5053983;28;20028;-61
2022/04/14 11:23:02;;;;;;;12.77;4.95;;;23.70;69.60;;;;;;5052611;28;20066;-61
2022/04/14 11:25:46;;;;;;;10.63;4.72;;;23.70;63.50;;;;;;5054136;28;20388;-60
2022/04/14 11:28:26;;;;;;;15.57;4.78;;;24.50;63.70;;;;;;5053742;28;20181;-61
2022/04/14 11:30:56;;;;;;;5.70;4.22;;;25.80;62.90;;;;;;5053573;28;20021;-61
2022/04/14 11:33:28;;;;;;;13.18;4.03;;;26.00;55.60;;;;;;5053635;28;20036;-61
2022/04/14 11:36:06;;;;;;;7.82;4.30;;;26.40;52.50;;;;;;5053802;28;20103;-61
2022/04/14 11:38:56;;;;;;;9.43;3.72;;;26.30;53.80;;;;;;5053273;28;20059;-61
2022/04/14 11:41:32;;;;;;;8.52;4.13;;;28.00;48.80;;;;;;5052021;28;20111;-61
2022/04/14 11:43:59;;;;;;;10.80;3.47;;;28.50;48.80;;;;;;5053158;28;20040;-59
2022/04/14 11:46:25;;;;;;;9.73;5.22;;;28.60;46.20;;;;;;5053135;28;20017;-60
2022/04/14 11:48:51;;;;;;;8.25;4.75;;;28.70;44.20;;;;;;5048340;28;20112;-60
2022/04/14 11:51:18;;;;;;;13.00;4.68;;;28.40;44.00;;;;;;5021651;28;20030;-60
2022/04/14 11:53:43;;;;;;;7.43;4.57;;;28.30;43.70;;;;;;5022190;28;20057;-61
2022/04/14 11:56:17;;;;;;;8.80;4.03;;;28.90;47.30;;;;;;5021331;28;20058;-61
2022/04/14 11:58:43;;;;;;;6.47;4.28;;;29.10;42.60;;;;;;5022465;28;20025;-61
2022/04/14 12:01:09;;;;;;;6.93;3.88;;;29.10;43.00;;;;;;5022261;28;20067;-60
2022/04/14 12:03:35;;;;;;;8.73;4.13;;;30.60;42.00;;;;;;5022934;28;20041;-60
2022/04/14 12:06:04;;;;;;;9.80;4.40;;;30.40;40.90;;;;;;5022373;28;20053;-60
2022/04/14 12:08:30;;;;;;;7.78;4.68;;;30.10;42.00;;;;;;5023036;28;20035;-60
2022/04/14 12:10:55;;;;;;;9.65;5.53;;;29.90;41.50;;;;;;5021610;28;20029;-61
2022/04/14 12:13:23;;;;;;;9.77;4.68;;;28.20;41.60;;;;;;5023482;28;20037;-61
2022/04/14 12:16:04;;;;;;;7.35;4.38;;;28.80;41.90;;;;;;5022073;28;20054;-60
2022/04/14 12:18:29;;;;;;;11.57;3.97;;;29.10;39.70;;;;;;5022513;28;20518;-61
2022/04/14 12:20:55;;;;;;;6.43;3.40;;;29.90;41.20;;;;;;5022564;28;20045;-60
2022/04/14 12:23:21;;;;;;;9.88;3.63;;;31.60;41.50;;;;;;5021828;28;20061;-61
2022/04/14 12:25:47;;;;;;;7.47;3.88;;;32.00;39.20;;;;;;5021999;28;20030;-61
2022/04/14 12:28:13;;;;;;;8.55;4.05;;;31.40;38.30;;;;;;5021299;28;20469;-61
2022/04/14 12:30:42;;;;;;;5.82;3.42;;;31.30;38.50;;;;;;5020598;28;20036;-59
2022/04/14 12:33:08;;;;;;;4.63;3.20;;;32.20;36.30;;;;;;5021854;28;20048;-59
2022/04/14 12:35:38;;;;;;;6.38;2.88;;;32.20;36.00;;;;;;5022381;28;20029;-58
2022/04/14 12:38:21;;;;;;;9.70;3.38;;;31.80;37.70;;;;;;5021853;28;20056;-58
2022/04/14 12:40:57;;;;;;;7.22;3.55;;;31.20;37.50;;;;;;5031867;28;20476;-61
2022/04/14 12:43:24;;;;;;;10.20;2.97;;;30.70;37.40;;;;;;5021395;28;20037;-61
2022/04/14 12:45:50;;;;;;;12.35;3.65;;;31.50;38.10;;;;;;5021528;28;20105;-61
2022/04/14 12:48:45;;;;;;;7.30;3.42;;;31.50;37.80;;;;;;5022034;28;20183;-60
2022/04/14 12:51:10;;;;;;;7.07;3.42;;;30.60;37.20;;;;;;5025036;28;20053;-61